sensor_id;sensor_type;location;lat;lon;timestamp;P1;durP1;ratioP1;P2;durP2;ratioP2
50681;SDS011;36779;52.168;20.878;2022-08-21T00:02:25;8.00;;;5.00;;
50681;SDS011;36779;52.168;20.878;2022-08-21T00:05:15;6.70;;;4.30;;
50681;SDS011;36779;52.168;20.878;2022-08-21T00:08:04;8.40;;;4.70;;
50681;SDS011;36779;52.168;20.878;2022-08-21T00:10:43;5.50;;;4.70;;
50681;SDS011;36779;52.168;20.878;2022-08-21T00:13:34;5.80;;;4.60;;
50681;SDS011;36779;52.168;20.878;2022-08-21T00:16:24;5.10;;;4.60;;
50681;SDS011;36779;52.168;20.878;2022-08-21T00:19:13;6.40;;;4.40;;
50681;SDS011;36779;52.168;20.878;2022-08-21T00:22:03;4.70;;;4.20;;
50681;SDS011;36779;52.168;20.878;2022-08-21T00:24:52;7.50;;;4.50;;
50681;SDS011;36779;52.168;20.878;2022-08-21T00:27:41;9.10;;;5.30;;
50681;SDS011;36779;52.168;20.878;2022-08-21T00:30:23;5.90;;;4.90;;
50681;SDS011;36779;52.168;20.878;2022-08-21T00:33:15;6.00;;;4.60;;
50681;SDS011;36779;52.168;20.878;2022-08-21T00:36:04;5.70;;;4.30;;
50681;SDS011;36779;52.168;20.878;2022-08-21T00:38:53;6.00;;;4.20;;
50681;SDS011;36779;52.168;20.878;2022-08-21T00:41:43;7.50;;;4.60;;
50681;SDS011;36779;52.168;20.878;2022-08-21T00:44:32;9.00;;;4.90;;
50681;SDS011;36779;52.168;20.878;2022-08-21T00:47:14;7.30;;;4.90;;
50681;SDS011;36779;52.168;20.878;2022-08-21T00:50:06;4.80;;;4.30;;
50681;SDS011;36779;52.168;20.878;2022-08-21T00:53:10;7.30;;;4.30;;
50681;SDS011;36779;52.168;20.878;2022-08-21T00:56:03;5.50;;;4.20;;
50681;SDS011;36779;52.168;20.878;2022-08-21T00:58:49;6.20;;;4.40;;
50681;SDS011;36779;52.168;20.878;2022-08-21T01:01:41;6.90;;;4.50;;
50681;SDS011;36779;52.168;20.878;2022-08-21T01:04:30;7.20;;;4.30;;
50681;SDS011;36779;52.168;20.878;2022-08-21T01:06:59;5.70;;;4.50;;
50681;SDS011;36779;52.168;20.878;2022-08-21T01:09:29;6.10;;;4.70;;
50681;SDS011;36779;52.168;20.878;2022-08-21T01:12:19;6.10;;;4.40;;
50681;SDS011;36779;52.168;20.878;2022-08-21T01:14:57;8.50;;;5.00;;
50681;SDS011;36779;52.168;20.878;2022-08-21T01:17:46;6.40;;;4.50;;
50681;SDS011;36779;52.168;20.878;2022-08-21T01:20:37;6.30;;;4.60;;
50681;SDS011;36779;52.168;20.878;2022-08-21T01:23:33;5.80;;;4.70;;
50681;SDS011;36779;52.168;20.878;2022-08-21T01:26:24;7.50;;;4.40;;
50681;SDS011;36779;52.168;20.878;2022-08-21T01:29:26;7.70;;;4.90;;
50681;SDS011;36779;52.168;20.878;2022-08-21T01:32:19;6.70;;;4.50;;
50681;SDS011;36779;52.168;20.878;2022-08-21T01:35:09;8.30;;;4.50;;
50681;SDS011;36779;52.168;20.878;2022-08-21T01:37:58;5.30;;;4.60;;
50681;SDS011;36779;52.168;20.878;2022-08-21T01:40:48;9.80;;;4.90;;
50681;SDS011;36779;52.168;20.878;2022-08-21T01:43:36;7.20;;;4.60;;
50681;SDS011;36779;52.168;20.878;2022-08-21T01:46:28;5.00;;;4.40;;
50681;SDS011;36779;52.168;20.878;2022-08-21T01:49:16;6.10;;;4.10;;
50681;SDS011;36779;52.168;20.878;2022-08-21T01:52:06;7.00;;;4.40;;
50681;SDS011;36779;52.168;20.878;2022-08-21T01:54:47;6.60;;;4.40;;
50681;SDS011;36779;52.168;20.878;2022-08-21T01:57:42;8.50;;;5.40;;
50681;SDS011;36779;52.168;20.878;2022-08-21T02:00:31;5.60;;;4.90;;
50681;SDS011;36779;52.168;20.878;2022-08-21T02:03:11;7.00;;;4.60;;
50681;SDS011;36779;52.168;20.878;2022-08-21T02:06:18;5.10;;;4.60;;
50681;SDS011;36779;52.168;20.878;2022-08-21T02:09:07;8.00;;;4.50;;
50681;SDS011;36779;52.168;20.878;2022-08-21T02:11:48;9.50;;;4.60;;
50681;SDS011;36779;52.168;20.878;2022-08-21T02:14:37;5.60;;;4.60;;
50681;SDS011;36779;52.168;20.878;2022-08-21T02:17:26;8.40;;;5.00;;
50681;SDS011;36779;52.168;20.878;2022-08-21T02:20:17;9.30;;;4.70;;
50681;SDS011;36779;52.168;20.878;2022-08-21T02:22:58;5.60;;;4.10;;
50681;SDS011;36779;52.168;20.878;2022-08-21T02:25:48;6.30;;;4.70;;
50681;SDS011;36779;52.168;20.878;2022-08-21T02:28:16;7.10;;;5.00;;
50681;SDS011;36779;52.168;20.878;2022-08-21T02:30:56;6.30;;;4.90;;
50681;SDS011;36779;52.168;20.878;2022-08-21T02:33:35;7.20;;;5.20;;
50681;SDS011;36779;52.168;20.878;2022-08-21T02:36:26;5.70;;;4.90;;
50681;SDS011;36779;52.168;20.878;2022-08-21T02:39:15;4.80;;;4.30;;
50681;SDS011;36779;52.168;20.878;2022-08-21T02:42:14;5.60;;;4.10;;
50681;SDS011;36779;52.168;20.878;2022-08-21T02:45:03;5.40;;;4.10;;
50681;SDS011;36779;52.168;20.878;2022-08-21T02:47:47;5.30;;;4.50;;
50681;SDS011;36779;52.168;20.878;2022-08-21T02:50:22;5.20;;;4.70;;
50681;SDS011;36779;52.168;20.878;2022-08-21T02:53:15;5.40;;;4.90;;
50681;SDS011;36779;52.168;20.878;2022-08-21T02:56:05;6.70;;;4.70;;
50681;SDS011;36779;52.168;20.878;2022-08-21T02:58:56;6.10;;;4.60;;
50681;SDS011;36779;52.168;20.878;2022-08-21T03:01:45;8.00;;;4.10;;
50681;SDS011;36779;52.168;20.878;2022-08-21T03:04:35;8.10;;;4.90;;
50681;SDS011;36779;52.168;20.878;2022-08-21T03:07:23;7.80;;;4.60;;
50681;SDS011;36779;52.168;20.878;2022-08-21T03:10:13;9.50;;;4.90;;
50681;SDS011;36779;52.168;20.878;2022-08-21T03:13:03;7.00;;;5.20;;
50681;SDS011;36779;52.168;20.878;2022-08-21T03:15:52;7.20;;;5.20;;
50681;SDS011;36779;52.168;20.878;2022-08-21T03:18:41;5.20;;;4.40;;
50681;SDS011;36779;52.168;20.878;2022-08-21T03:21:19;5.50;;;4.10;;
50681;SDS011;36779;52.168;20.878;2022-08-21T03:23:48;5.50;;;4.60;;
50681;SDS011;36779;52.168;20.878;2022-08-21T03:26:38;5.90;;;5.00;;
50681;SDS011;36779;52.168;20.878;2022-08-21T03:29:19;8.30;;;4.90;;
50681;SDS011;36779;52.168;20.878;2022-08-21T03:32:08;6.90;;;4.80;;
50681;SDS011;36779;52.168;20.878;2022-08-21T03:34:57;6.30;;;4.70;;
50681;SDS011;36779;52.168;20.878;2022-08-21T03:37:47;6.90;;;4.90;;
50681;SDS011;36779;52.168;20.878;2022-08-21T03:40:27;5.10;;;4.40;;
50681;SDS011;36779;52.168;20.878;2022-08-21T03:42:56;6.90;;;4.30;;
50681;SDS011;36779;52.168;20.878;2022-08-21T03:45:38;7.30;;;4.70;;
50681;SDS011;36779;52.168;20.878;2022-08-21T03:48:30;7.40;;;4.90;;
50681;SDS011;36779;52.168;20.878;2022-08-21T03:51:19;5.10;;;4.60;;
50681;SDS011;36779;52.168;20.878;2022-08-21T03:54:08;7.20;;;4.60;;
50681;SDS011;36779;52.168;20.878;2022-08-21T03:56:57;6.30;;;4.40;;
50681;SDS011;36779;52.168;20.878;2022-08-21T03:59:47;8.90;;;4.60;;
50681;SDS011;36779;52.168;20.878;2022-08-21T04:02:36;8.40;;;4.40;;
50681;SDS011;36779;52.168;20.878;2022-08-21T04:05:25;6.30;;;4.60;;
50681;SDS011;36779;52.168;20.878;2022-08-21T04:08:07;8.40;;;5.10;;
50681;SDS011;36779;52.168;20.878;2022-08-21T04:11:00;6.40;;;5.20;;
50681;SDS011;36779;52.168;20.878;2022-08-21T04:13:49;6.40;;;4.70;;
50681;SDS011;36779;52.168;20.878;2022-08-21T04:16:39;6.60;;;4.80;;
50681;SDS011;36779;52.168;20.878;2022-08-21T04:19:29;5.10;;;3.90;;
50681;SDS011;36779;52.168;20.878;2022-08-21T04:22:19;5.00;;;4.10;;
50681;SDS011;36779;52.168;20.878;2022-08-21T04:25:08;5.50;;;4.90;;
50681;SDS011;36779;52.168;20.878;2022-08-21T04:27:57;9.60;;;4.80;;
50681;SDS011;36779;52.168;20.878;2022-08-21T04:30:46;5.70;;;5.00;;
50681;SDS011;36779;52.168;20.878;2022-08-21T04:33:35;6.20;;;5.20;;
50681;SDS011;36779;52.168;20.878;2022-08-21T04:36:24;5.70;;;4.50;;
50681;SDS011;36779;52.168;20.878;2022-08-21T04:39:04;7.20;;;4.20;;
50681;SDS011;36779;52.168;20.878;2022-08-21T04:41:56;6.90;;;4.90;;
50681;SDS011;36779;52.168;20.878;2022-08-21T04:44:47;6.20;;;4.70;;
50681;SDS011;36779;52.168;20.878;2022-08-21T04:47:36;5.90;;;4.70;;
50681;SDS011;36779;52.168;20.878;2022-08-21T04:50:40;8.10;;;5.40;;
50681;SDS011;36779;52.168;20.878;2022-08-21T04:53:33;5.50;;;4.90;;
50681;SDS011;36779;52.168;20.878;2022-08-21T04:56:25;6.10;;;5.00;;
50681;SDS011;36779;52.168;20.878;2022-08-21T04:59:18;6.10;;;4.80;;
50681;SDS011;36779;52.168;20.878;2022-08-21T05:02:11;6.30;;;4.50;;
50681;SDS011;36779;52.168;20.878;2022-08-21T05:05:01;6.50;;;4.60;;
50681;SDS011;36779;52.168;20.878;2022-08-21T05:07:51;6.10;;;4.70;;
50681;SDS011;36779;52.168;20.878;2022-08-21T05:10:43;5.40;;;4.70;;
50681;SDS011;36779;52.168;20.878;2022-08-21T05:13:34;5.40;;;4.80;;
50681;SDS011;36779;52.168;20.878;2022-08-21T05:16:24;5.00;;;4.50;;
50681;SDS011;36779;52.168;20.878;2022-08-21T05:19:24;6.40;;;5.10;;
50681;SDS011;36779;52.168;20.878;2022-08-21T05:22:04;5.40;;;4.30;;
50681;SDS011;36779;52.168;20.878;2022-08-21T05:24:44;8.20;;;4.30;;
50681;SDS011;36779;52.168;20.878;2022-08-21T05:27:35;6.20;;;4.50;;
50681;SDS011;36779;52.168;20.878;2022-08-21T05:30:26;5.80;;;4.60;;
50681;SDS011;36779;52.168;20.878;2022-08-21T05:33:16;5.20;;;4.70;;
50681;SDS011;36779;52.168;20.878;2022-08-21T05:36:05;5.40;;;4.70;;
50681;SDS011;36779;52.168;20.878;2022-08-21T05:38:55;8.30;;;4.90;;
50681;SDS011;36779;52.168;20.878;2022-08-21T05:41:34;5.30;;;4.80;;
50681;SDS011;36779;52.168;20.878;2022-08-21T05:44:23;5.40;;;4.70;;
50681;SDS011;36779;52.168;20.878;2022-08-21T05:47:13;8.10;;;5.10;;
50681;SDS011;36779;52.168;20.878;2022-08-21T05:50:03;5.20;;;4.60;;
50681;SDS011;36779;52.168;20.878;2022-08-21T05:52:44;5.70;;;4.90;;
50681;SDS011;36779;52.168;20.878;2022-08-21T05:55:34;5.40;;;4.90;;
50681;SDS011;36779;52.168;20.878;2022-08-21T05:58:30;5.90;;;4.90;;
50681;SDS011;36779;52.168;20.878;2022-08-21T06:01:20;6.20;;;4.90;;
50681;SDS011;36779;52.168;20.878;2022-08-21T06:04:00;6.10;;;5.10;;
50681;SDS011;36779;52.168;20.878;2022-08-21T06:06:49;7.00;;;4.80;;
50681;SDS011;36779;52.168;20.878;2022-08-21T06:09:39;7.40;;;4.80;;
50681;SDS011;36779;52.168;20.878;2022-08-21T06:12:09;6.30;;;4.90;;
50681;SDS011;36779;52.168;20.878;2022-08-21T06:14:59;6.30;;;4.90;;
50681;SDS011;36779;52.168;20.878;2022-08-21T06:17:51;5.90;;;5.30;;
50681;SDS011;36779;52.168;20.878;2022-08-21T06:20:41;5.60;;;4.70;;
50681;SDS011;36779;52.168;20.878;2022-08-21T06:23:31;6.80;;;5.60;;
50681;SDS011;36779;52.168;20.878;2022-08-21T06:26:21;6.80;;;5.30;;
50681;SDS011;36779;52.168;20.878;2022-08-21T06:29:12;5.80;;;5.30;;
50681;SDS011;36779;52.168;20.878;2022-08-21T06:32:04;8.30;;;5.10;;
50681;SDS011;36779;52.168;20.878;2022-08-21T06:34:57;8.30;;;5.30;;
50681;SDS011;36779;52.168;20.878;2022-08-21T06:37:46;5.90;;;5.30;;
50681;SDS011;36779;52.168;20.878;2022-08-21T06:40:35;6.30;;;4.90;;
50681;SDS011;36779;52.168;20.878;2022-08-21T06:43:25;6.80;;;5.00;;
50681;SDS011;36779;52.168;20.878;2022-08-21T06:46:27;5.70;;;5.00;;
50681;SDS011;36779;52.168;20.878;2022-08-21T06:49:17;6.20;;;4.80;;
50681;SDS011;36779;52.168;20.878;2022-08-21T06:52:08;6.20;;;5.20;;
50681;SDS011;36779;52.168;20.878;2022-08-21T06:54:59;7.20;;;5.20;;
50681;SDS011;36779;52.168;20.878;2022-08-21T06:57:49;6.80;;;5.00;;
50681;SDS011;36779;52.168;20.878;2022-08-21T07:00:42;6.40;;;5.00;;
50681;SDS011;36779;52.168;20.878;2022-08-21T07:03:33;7.60;;;5.10;;
50681;SDS011;36779;52.168;20.878;2022-08-21T07:06:24;5.80;;;4.80;;
50681;SDS011;36779;52.168;20.878;2022-08-21T07:09:14;7.10;;;5.30;;
50681;SDS011;36779;52.168;20.878;2022-08-21T07:12:06;5.80;;;5.20;;
50681;SDS011;36779;52.168;20.878;2022-08-21T07:14:57;7.40;;;5.50;;
50681;SDS011;36779;52.168;20.878;2022-08-21T07:17:46;8.60;;;5.30;;
50681;SDS011;36779;52.168;20.878;2022-08-21T07:20:35;7.30;;;5.30;;
50681;SDS011;36779;52.168;20.878;2022-08-21T07:23:24;7.70;;;5.30;;
50681;SDS011;36779;52.168;20.878;2022-08-21T07:26:18;5.90;;;5.00;;
50681;SDS011;36779;52.168;20.878;2022-08-21T07:29:09;6.90;;;4.80;;
50681;SDS011;36779;52.168;20.878;2022-08-21T07:31:51;4.70;;;4.30;;
50681;SDS011;36779;52.168;20.878;2022-08-21T07:34:39;6.00;;;5.00;;
50681;SDS011;36779;52.168;20.878;2022-08-21T07:37:29;5.50;;;5.00;;
50681;SDS011;36779;52.168;20.878;2022-08-21T07:40:09;6.90;;;5.30;;
50681;SDS011;36779;52.168;20.878;2022-08-21T07:42:59;7.20;;;5.40;;
50681;SDS011;36779;52.168;20.878;2022-08-21T07:45:48;9.10;;;5.20;;
50681;SDS011;36779;52.168;20.878;2022-08-21T07:48:37;5.80;;;4.80;;
50681;SDS011;36779;52.168;20.878;2022-08-21T07:51:28;6.30;;;4.90;;
50681;SDS011;36779;52.168;20.878;2022-08-21T07:54:18;5.60;;;4.60;;
50681;SDS011;36779;52.168;20.878;2022-08-21T07:57:21;5.40;;;4.50;;
50681;SDS011;36779;52.168;20.878;2022-08-21T08:00:10;6.20;;;5.20;;
50681;SDS011;36779;52.168;20.878;2022-08-21T08:02:43;7.90;;;4.80;;
50681;SDS011;36779;52.168;20.878;2022-08-21T08:05:34;6.90;;;4.70;;
50681;SDS011;36779;52.168;20.878;2022-08-21T08:08:24;6.70;;;4.60;;
50681;SDS011;36779;52.168;20.878;2022-08-21T08:11:13;6.10;;;4.80;;
50681;SDS011;36779;52.168;20.878;2022-08-21T08:14:03;6.00;;;5.00;;
50681;SDS011;36779;52.168;20.878;2022-08-21T08:16:52;5.40;;;4.70;;
50681;SDS011;36779;52.168;20.878;2022-08-21T08:19:41;6.20;;;4.50;;
50681;SDS011;36779;52.168;20.878;2022-08-21T08:22:29;5.70;;;4.70;;
50681;SDS011;36779;52.168;20.878;2022-08-21T08:25:19;7.40;;;4.50;;
50681;SDS011;36779;52.168;20.878;2022-08-21T08:28:09;8.20;;;5.00;;
50681;SDS011;36779;52.168;20.878;2022-08-21T08:31:04;5.00;;;4.50;;
50681;SDS011;36779;52.168;20.878;2022-08-21T08:33:53;6.30;;;4.50;;
50681;SDS011;36779;52.168;20.878;2022-08-21T08:36:42;6.20;;;4.80;;
50681;SDS011;36779;52.168;20.878;2022-08-21T08:39:30;7.70;;;4.60;;
50681;SDS011;36779;52.168;20.878;2022-08-21T08:42:23;6.60;;;4.30;;
50681;SDS011;36779;52.168;20.878;2022-08-21T08:45:21;6.00;;;4.00;;
50681;SDS011;36779;52.168;20.878;2022-08-21T08:48:14;7.10;;;4.30;;
50681;SDS011;36779;52.168;20.878;2022-08-21T08:51:17;5.20;;;4.20;;
50681;SDS011;36779;52.168;20.878;2022-08-21T08:54:11;7.40;;;4.50;;
50681;SDS011;36779;52.168;20.878;2022-08-21T08:57:04;4.70;;;4.30;;
50681;SDS011;36779;52.168;20.878;2022-08-21T09:00:03;4.50;;;3.90;;
50681;SDS011;36779;52.168;20.878;2022-08-21T09:02:57;5.50;;;3.90;;
50681;SDS011;36779;52.168;20.878;2022-08-21T09:05:57;6.30;;;3.30;;
50681;SDS011;36779;52.168;20.878;2022-08-21T09:08:53;6.40;;;4.30;;
50681;SDS011;36779;52.168;20.878;2022-08-21T09:11:54;6.00;;;3.50;;
50681;SDS011;36779;52.168;20.878;2022-08-21T09:14:57;4.10;;;3.70;;
50681;SDS011;36779;52.168;20.878;2022-08-21T09:17:56;6.80;;;3.70;;
50681;SDS011;36779;52.168;20.878;2022-08-21T09:20:59;7.00;;;3.60;;
50681;SDS011;36779;52.168;20.878;2022-08-21T09:23:59;5.60;;;3.80;;
50681;SDS011;36779;52.168;20.878;2022-08-21T09:26:52;8.50;;;3.90;;
50681;SDS011;36779;52.168;20.878;2022-08-21T09:29:48;5.70;;;4.30;;
50681;SDS011;36779;52.168;20.878;2022-08-21T09:32:40;5.30;;;3.90;;
50681;SDS011;36779;52.168;20.878;2022-08-21T09:35:29;6.80;;;4.10;;
50681;SDS011;36779;52.168;20.878;2022-08-21T09:38:25;4.80;;;4.30;;
50681;SDS011;36779;52.168;20.878;2022-08-21T09:41:15;4.30;;;3.80;;
50681;SDS011;36779;52.168;20.878;2022-08-21T09:44:23;5.10;;;3.70;;
50681;SDS011;36779;52.168;20.878;2022-08-21T09:47:18;4.20;;;3.60;;
50681;SDS011;36779;52.168;20.878;2022-08-21T09:50:16;5.00;;;3.60;;
50681;SDS011;36779;52.168;20.878;2022-08-21T09:53:13;3.80;;;3.40;;
50681;SDS011;36779;52.168;20.878;2022-08-21T09:56:16;8.10;;;3.70;;
50681;SDS011;36779;52.168;20.878;2022-08-21T09:59:26;5.80;;;3.70;;
50681;SDS011;36779;52.168;20.878;2022-08-21T10:02:25;4.40;;;3.50;;
50681;SDS011;36779;52.168;20.878;2022-08-21T10:05:20;3.60;;;3.30;;
50681;SDS011;36779;52.168;20.878;2022-08-21T10:21:40;4.50;;;3.30;;
50681;SDS011;36779;52.168;20.878;2022-08-21T10:24:52;5.30;;;2.80;;
50681;SDS011;36779;52.168;20.878;2022-08-21T10:27:52;3.60;;;3.20;;
50681;SDS011;36779;52.168;20.878;2022-08-21T10:30:48;3.40;;;3.10;;
50681;SDS011;36779;52.168;20.878;2022-08-21T10:33:42;3.70;;;2.90;;
50681;SDS011;36779;52.168;20.878;2022-08-21T10:36:43;4.00;;;3.00;;
50681;SDS011;36779;52.168;20.878;2022-08-21T10:39:35;3.70;;;3.20;;
50681;SDS011;36779;52.168;20.878;2022-08-21T10:42:34;4.40;;;3.10;;
50681;SDS011;36779;52.168;20.878;2022-08-21T10:45:30;4.20;;;3.00;;
50681;SDS011;36779;52.168;20.878;2022-08-21T10:48:35;4.00;;;3.10;;
50681;SDS011;36779;52.168;20.878;2022-08-21T10:51:30;3.60;;;2.70;;
50681;SDS011;36779;52.168;20.878;2022-08-21T10:54:29;3.90;;;2.80;;
50681;SDS011;36779;52.168;20.878;2022-08-21T10:57:27;4.80;;;2.90;;
50681;SDS011;36779;52.168;20.878;2022-08-21T11:00:22;3.50;;;2.80;;
50681;SDS011;36779;52.168;20.878;2022-08-21T11:03:20;6.10;;;3.10;;
50681;SDS011;36779;52.168;20.878;2022-08-21T11:06:18;3.20;;;2.90;;
50681;SDS011;36779;52.168;20.878;2022-08-21T11:09:10;3.50;;;2.90;;
50681;SDS011;36779;52.168;20.878;2022-08-21T11:12:06;4.10;;;2.80;;
50681;SDS011;36779;52.168;20.878;2022-08-21T11:15:16;4.80;;;3.30;;
50681;SDS011;36779;52.168;20.878;2022-08-21T11:18:19;4.30;;;3.00;;
50681;SDS011;36779;52.168;20.878;2022-08-21T11:21:19;3.40;;;2.80;;
50681;SDS011;36779;52.168;20.878;2022-08-21T11:24:22;3.40;;;3.10;;
50681;SDS011;36779;52.168;20.878;2022-08-21T11:27:18;3.70;;;3.00;;
50681;SDS011;36779;52.168;20.878;2022-08-21T11:30:10;5.60;;;3.30;;
50681;SDS011;36779;52.168;20.878;2022-08-21T11:33:05;4.20;;;2.80;;
50681;SDS011;36779;52.168;20.878;2022-08-21T11:36:07;4.40;;;3.10;;
50681;SDS011;36779;52.168;20.878;2022-08-21T11:39:06;5.40;;;3.40;;
50681;SDS011;36779;52.168;20.878;2022-08-21T11:42:06;4.50;;;3.40;;
50681;SDS011;36779;52.168;20.878;2022-08-21T11:45:10;5.40;;;3.30;;
50681;SDS011;36779;52.168;20.878;2022-08-21T11:48:18;4.60;;;3.20;;
50681;SDS011;36779;52.168;20.878;2022-08-21T11:51:21;4.50;;;2.90;;
50681;SDS011;36779;52.168;20.878;2022-08-21T11:54:17;8.40;;;3.60;;
50681;SDS011;36779;52.168;20.878;2022-08-21T11:57:19;6.30;;;3.30;;
50681;SDS011;36779;52.168;20.878;2022-08-21T12:00:13;4.80;;;2.90;;
50681;SDS011;36779;52.168;20.878;2022-08-21T12:03:08;3.00;;;2.80;;
50681;SDS011;36779;52.168;20.878;2022-08-21T12:06:02;4.80;;;2.60;;
50681;SDS011;36779;52.168;20.878;2022-08-21T12:08:57;5.20;;;2.80;;
50681;SDS011;36779;52.168;20.878;2022-08-21T12:11:49;4.30;;;2.70;;
50681;SDS011;36779;52.168;20.878;2022-08-21T12:14:48;3.00;;;2.70;;
50681;SDS011;36779;52.168;20.878;2022-08-21T12:17:40;3.80;;;2.70;;
50681;SDS011;36779;52.168;20.878;2022-08-21T12:20:41;2.70;;;2.40;;
50681;SDS011;36779;52.168;20.878;2022-08-21T12:23:44;5.40;;;2.70;;
50681;SDS011;36779;52.168;20.878;2022-08-21T12:26:47;3.80;;;2.80;;
50681;SDS011;36779;52.168;20.878;2022-08-21T12:29:38;3.70;;;2.90;;
50681;SDS011;36779;52.168;20.878;2022-08-21T12:32:43;2.70;;;2.50;;
50681;SDS011;36779;52.168;20.878;2022-08-21T12:35:41;3.50;;;2.60;;
50681;SDS011;36779;52.168;20.878;2022-08-21T12:38:33;5.20;;;2.60;;
50681;SDS011;36779;52.168;20.878;2022-08-21T12:41:44;4.40;;;2.50;;
50681;SDS011;36779;52.168;20.878;2022-08-21T12:44:37;3.10;;;2.40;;
50681;SDS011;36779;52.168;20.878;2022-08-21T12:47:33;3.70;;;2.70;;
50681;SDS011;36779;52.168;20.878;2022-08-21T12:50:32;3.70;;;2.40;;
50681;SDS011;36779;52.168;20.878;2022-08-21T12:53:26;3.50;;;2.40;;
50681;SDS011;36779;52.168;20.878;2022-08-21T12:56:19;5.50;;;2.90;;
50681;SDS011;36779;52.168;20.878;2022-08-21T12:59:12;2.70;;;2.40;;
50681;SDS011;36779;52.168;20.878;2022-08-21T13:02:01;5.40;;;2.90;;
50681;SDS011;36779;52.168;20.878;2022-08-21T13:05:02;3.30;;;2.90;;
50681;SDS011;36779;52.168;20.878;2022-08-21T13:07:46;3.60;;;3.00;;
50681;SDS011;36779;52.168;20.878;2022-08-21T13:10:36;3.00;;;2.70;;
50681;SDS011;36779;52.168;20.878;2022-08-21T13:13:27;5.60;;;2.60;;
50681;SDS011;36779;52.168;20.878;2022-08-21T13:16:19;3.00;;;2.30;;
50681;SDS011;36779;52.168;20.878;2022-08-21T13:19:16;5.10;;;2.60;;
50681;SDS011;36779;52.168;20.878;2022-08-21T13:22:14;3.90;;;2.60;;
50681;SDS011;36779;52.168;20.878;2022-08-21T13:25:28;4.70;;;2.50;;
50681;SDS011;36779;52.168;20.878;2022-08-21T13:28:21;3.00;;;2.60;;
50681;SDS011;36779;52.168;20.878;2022-08-21T13:31:10;2.90;;;2.60;;
50681;SDS011;36779;52.168;20.878;2022-08-21T13:34:00;4.60;;;3.10;;
50681;SDS011;36779;52.168;20.878;2022-08-21T13:36:51;4.40;;;2.70;;
50681;SDS011;36779;52.168;20.878;2022-08-21T13:39:47;3.30;;;2.20;;
50681;SDS011;36779;52.168;20.878;2022-08-21T13:42:39;3.70;;;2.60;;
50681;SDS011;36779;52.168;20.878;2022-08-21T13:45:31;3.50;;;2.50;;
50681;SDS011;36779;52.168;20.878;2022-08-21T13:48:21;4.10;;;2.40;;
50681;SDS011;36779;52.168;20.878;2022-08-21T13:51:13;3.60;;;2.60;;
50681;SDS011;36779;52.168;20.878;2022-08-21T13:54:12;3.10;;;2.80;;
50681;SDS011;36779;52.168;20.878;2022-08-21T13:57:17;3.00;;;2.80;;
50681;SDS011;36779;52.168;20.878;2022-08-21T14:00:11;2.80;;;2.40;;
50681;SDS011;36779;52.168;20.878;2022-08-21T14:03:05;2.90;;;2.70;;
50681;SDS011;36779;52.168;20.878;2022-08-21T14:05:56;5.10;;;2.70;;
50681;SDS011;36779;52.168;20.878;2022-08-21T14:08:49;3.60;;;2.80;;
50681;SDS011;36779;52.168;20.878;2022-08-21T14:11:41;3.60;;;3.30;;
50681;SDS011;36779;52.168;20.878;2022-08-21T14:14:31;4.00;;;3.30;;
50681;SDS011;36779;52.168;20.878;2022-08-21T14:17:26;3.20;;;2.90;;
50681;SDS011;36779;52.168;20.878;2022-08-21T14:20:27;2.80;;;2.60;;
50681;SDS011;36779;52.168;20.878;2022-08-21T14:23:23;3.80;;;3.10;;
50681;SDS011;36779;52.168;20.878;2022-08-21T14:26:12;3.60;;;2.60;;
50681;SDS011;36779;52.168;20.878;2022-08-21T14:28:58;3.20;;;2.80;;
50681;SDS011;36779;52.168;20.878;2022-08-21T14:31:50;4.20;;;2.90;;
50681;SDS011;36779;52.168;20.878;2022-08-21T14:34:40;3.90;;;3.40;;
50681;SDS011;36779;52.168;20.878;2022-08-21T14:37:28;5.40;;;4.70;;
50681;SDS011;36779;52.168;20.878;2022-08-21T14:40:19;10.10;;;7.00;;
50681;SDS011;36779;52.168;20.878;2022-08-21T14:43:09;8.50;;;7.10;;
50681;SDS011;36779;52.168;20.878;2022-08-21T14:45:58;4.60;;;3.50;;
50681;SDS011;36779;52.168;20.878;2022-08-21T14:48:50;3.20;;;2.70;;
50681;SDS011;36779;52.168;20.878;2022-08-21T14:51:39;3.80;;;2.80;;
50681;SDS011;36779;52.168;20.878;2022-08-21T14:54:41;3.10;;;2.80;;
50681;SDS011;36779;52.168;20.878;2022-08-21T14:57:30;5.80;;;3.10;;
50681;SDS011;36779;52.168;20.878;2022-08-21T15:00:20;3.10;;;2.70;;
50681;SDS011;36779;52.168;20.878;2022-08-21T15:03:23;5.50;;;3.20;;
50681;SDS011;36779;52.168;20.878;2022-08-21T15:06:13;5.90;;;2.70;;
50681;SDS011;36779;52.168;20.878;2022-08-21T15:09:04;3.90;;;2.80;;
50681;SDS011;36779;52.168;20.878;2022-08-21T15:11:55;4.00;;;3.10;;
50681;SDS011;36779;52.168;20.878;2022-08-21T15:14:47;4.10;;;3.20;;
50681;SDS011;36779;52.168;20.878;2022-08-21T15:17:36;4.50;;;3.10;;
50681;SDS011;36779;52.168;20.878;2022-08-21T15:20:27;4.80;;;3.20;;
50681;SDS011;36779;52.168;20.878;2022-08-21T15:23:10;2.90;;;2.70;;
50681;SDS011;36779;52.168;20.878;2022-08-21T15:26:02;3.60;;;2.80;;
50681;SDS011;36779;52.168;20.878;2022-08-21T15:28:51;4.40;;;2.70;;
50681;SDS011;36779;52.168;20.878;2022-08-21T15:31:50;3.40;;;2.70;;
50681;SDS011;36779;52.168;20.878;2022-08-21T15:34:41;3.90;;;2.30;;
50681;SDS011;36779;52.168;20.878;2022-08-21T15:37:30;3.30;;;2.60;;
50681;SDS011;36779;52.168;20.878;2022-08-21T15:40:19;3.10;;;2.50;;
50681;SDS011;36779;52.168;20.878;2022-08-21T15:43:00;6.70;;;2.70;;
50681;SDS011;36779;52.168;20.878;2022-08-21T15:45:51;3.80;;;2.50;;
50681;SDS011;36779;52.168;20.878;2022-08-21T15:48:41;3.00;;;2.60;;
50681;SDS011;36779;52.168;20.878;2022-08-21T15:51:32;3.20;;;2.70;;
50681;SDS011;36779;52.168;20.878;2022-08-21T15:54:30;3.10;;;2.70;;
50681;SDS011;36779;52.168;20.878;2022-08-21T15:57:20;3.20;;;2.70;;
50681;SDS011;36779;52.168;20.878;2022-08-21T16:00:12;3.60;;;2.60;;
50681;SDS011;36779;52.168;20.878;2022-08-21T16:03:05;3.00;;;2.30;;
50681;SDS011;36779;52.168;20.878;2022-08-21T16:05:59;4.30;;;2.80;;
50681;SDS011;36779;52.168;20.878;2022-08-21T16:08:48;3.80;;;2.60;;
50681;SDS011;36779;52.168;20.878;2022-08-21T16:11:37;5.30;;;3.10;;
50681;SDS011;36779;52.168;20.878;2022-08-21T16:14:27;2.80;;;2.50;;
50681;SDS011;36779;52.168;20.878;2022-08-21T16:17:17;3.70;;;2.50;;
50681;SDS011;36779;52.168;20.878;2022-08-21T16:20:17;3.50;;;2.50;;
50681;SDS011;36779;52.168;20.878;2022-08-21T16:23:08;3.00;;;2.30;;
50681;SDS011;36779;52.168;20.878;2022-08-21T16:25:57;4.20;;;2.70;;
50681;SDS011;36779;52.168;20.878;2022-08-21T16:28:47;2.80;;;2.40;;
50681;SDS011;36779;52.168;20.878;2022-08-21T16:31:41;3.90;;;2.60;;
50681;SDS011;36779;52.168;20.878;2022-08-21T16:34:30;3.30;;;3.00;;
50681;SDS011;36779;52.168;20.878;2022-08-21T16:37:19;4.80;;;3.00;;
50681;SDS011;36779;52.168;20.878;2022-08-21T16:40:11;3.40;;;3.10;;
50681;SDS011;36779;52.168;20.878;2022-08-21T16:43:01;3.70;;;3.40;;
50681;SDS011;36779;52.168;20.878;2022-08-21T16:45:50;5.90;;;3.40;;
50681;SDS011;36779;52.168;20.878;2022-08-21T16:48:40;4.40;;;3.60;;
50681;SDS011;36779;52.168;20.878;2022-08-21T16:51:31;4.30;;;3.70;;
50681;SDS011;36779;52.168;20.878;2022-08-21T16:54:10;4.20;;;3.60;;
50681;SDS011;36779;52.168;20.878;2022-08-21T16:57:00;5.00;;;3.50;;
50681;SDS011;36779;52.168;20.878;2022-08-21T16:59:50;4.30;;;3.70;;
50681;SDS011;36779;52.168;20.878;2022-08-21T17:02:41;5.70;;;3.90;;
50681;SDS011;36779;52.168;20.878;2022-08-21T17:05:32;6.90;;;3.60;;
50681;SDS011;36779;52.168;20.878;2022-08-21T17:08:21;4.20;;;3.80;;
50681;SDS011;36779;52.168;20.878;2022-08-21T17:11:19;4.90;;;4.00;;